sensor_id;sensor_type;location;lat;lon;timestamp;pressure;altitude;pressure_sealevel;temperature;humidity
61478;BME280;47345;52.334;10.392;2023-04-26T00:00:23;100875.96;;;4.27;73.07
61478;BME280;47345;52.334;10.392;2023-04-26T00:02:54;100874.17;;;4.27;73.41
61478;BME280;47345;52.334;10.392;2023-04-26T00:05:25;100873.48;;;4.26;73.43
61478;BME280;47345;52.334;10.392;2023-04-26T00:07:57;100872.92;;;4.25;73.30
61478;BME280;47345;52.334;10.392;2023-04-26T00:10:29;100874.68;;;4.26;73.15
61478;BME280;47345;52.334;10.392;2023-04-26T00:13:01;100874.16;;;4.22;73.40
61478;BME280;47345;52.334;10.392;2023-04-26T00:15:32;100880.41;;;4.19;73.50
61478;BME280;47345;52.334;10.392;2023-04-26T00:18:04;100875.73;;;4.19;73.37
61478;BME280;47345;52.334;10.392;2023-04-26T00:20:37;100882.20;;;4.20;73.17
61478;BME280;47345;52.334;10.392;2023-04-26T00:23:08;100881.15;;;4.18;73.20
61478;BME280;47345;52.334;10.392;2023-04-26T00:25:39;100879.35;;;4.18;73.38
61478;BME280;47345;52.334;10.392;2023-04-26T00:28:11;100878.30;;;4.17;73.48
61478;BME280;47345;52.334;10.392;2023-04-26T00:30:42;100884.27;;;4.17;73.25
61478;BME280;47345;52.334;10.392;2023-04-26T00:33:16;100883.95;;;4.19;73.30
61478;BME280;47345;52.334;10.392;2023-04-26T00:35:48;100882.73;;;4.16;73.20
61478;BME280;47345;52.334;10.392;2023-04-26T00:38:19;100881.05;;;4.11;73.25
61478;BME280;47345;52.334;10.392;2023-04-26T00:40:50;100881.37;;;4.08;73.35
61478;BME280;47345;52.334;10.392;2023-04-26T00:43:22;100884.33;;;4.06;73.19
61478;BME280;47345;52.334;10.392;2023-04-26T00:45:54;100882.08;;;4.03;73.30
61478;BME280;47345;52.334;10.392;2023-04-26T00:48:26;100880.92;;;4.01;73.49
61478;BME280;47345;52.334;10.392;2023-04-26T00:50:57;100884.56;;;3.98;73.73
61478;BME280;47345;52.334;10.392;2023-04-26T00:53:28;100877.90;;;3.98;73.70
61478;BME280;47345;52.334;10.392;2023-04-26T00:56:00;100873.67;;;3.99;73.82
61478;BME280;47345;52.334;10.392;2023-04-26T00:58:32;100873.54;;;3.98;73.67
61478;BME280;47345;52.334;10.392;2023-04-26T01:01:02;100874.79;;;3.99;73.89
61478;BME280;47345;52.334;10.392;2023-04-26T01:03:33;100879.02;;;3.98;73.74
61478;BME280;47345;52.334;10.392;2023-04-26T01:06:04;100881.58;;;3.98;73.72
61478;BME280;47345;52.334;10.392;2023-04-26T01:08:35;100880.69;;;3.96;73.92
61478;BME280;47345;52.334;10.392;2023-04-26T01:11:06;100884.28;;;3.96;74.10
61478;BME280;47345;52.334;10.392;2023-04-26T01:13:37;100885.77;;;3.96;74.15
61478;BME280;47345;52.334;10.392;2023-04-26T01:16:08;100885.80;;;3.95;74.18
61478;BME280;47345;52.334;10.392;2023-04-26T01:18:39;100887.02;;;3.94;74.18
61478;BME280;47345;52.334;10.392;2023-04-26T01:21:11;100890.98;;;3.92;74.14
61478;BME280;47345;52.334;10.392;2023-04-26T01:23:42;100892.00;;;3.91;74.34
61478;BME280;47345;52.334;10.392;2023-04-26T01:26:13;100894.30;;;3.90;74.13
61478;BME280;47345;52.334;10.392;2023-04-26T01:28:43;100895.67;;;3.90;74.28
61478;BME280;47345;52.334;10.392;2023-04-26T01:31:15;100896.59;;;3.90;74.40
61478;BME280;47345;52.334;10.392;2023-04-26T01:33:45;100897.27;;;3.91;74.33
61478;BME280;47345;52.334;10.392;2023-04-26T01:36:16;100899.14;;;3.90;74.29
61478;BME280;47345;52.334;10.392;2023-04-26T01:38:46;100897.83;;;3.89;74.21
61478;BME280;47345;52.334;10.392;2023-04-26T01:41:18;100899.11;;;3.87;74.25
61478;BME280;47345;52.334;10.392;2023-04-26T01:43:48;100899.20;;;3.86;73.98
61478;BME280;47345;52.334;10.392;2023-04-26T01:46:19;100897.05;;;3.84;74.21
61478;BME280;47345;52.334;10.392;2023-04-26T01:48:50;100896.10;;;3.82;74.20
61478;BME280;47345;52.334;10.392;2023-04-26T01:51:21;100899.88;;;3.81;74.33
61478;BME280;47345;52.334;10.392;2023-04-26T01:53:52;100897.02;;;3.79;74.33
61478;BME280;47345;52.334;10.392;2023-04-26T01:56:24;100897.05;;;3.77;74.25
61478;BME280;47345;52.334;10.392;2023-04-26T01:58:55;100897.66;;;3.73;74.24
61478;BME280;47345;52.334;10.392;2023-04-26T02:01:26;100903.56;;;3.70;74.51
61478;BME280;47345;52.334;10.392;2023-04-26T02:03:57;100896.21;;;3.67;74.52
61478;BME280;47345;52.334;10.392;2023-04-26T02:06:27;100895.22;;;3.66;74.86
61478;BME280;47345;52.334;10.392;2023-04-26T02:08:58;100898.98;;;3.65;74.76
61478;BME280;47345;52.334;10.392;2023-04-26T02:11:29;100896.88;;;3.65;74.74
61478;BME280;47345;52.334;10.392;2023-04-26T02:13:59;100901.45;;;3.64;74.59
61478;BME280;47345;52.334;10.392;2023-04-26T02:16:30;100906.10;;;3.63;74.52
61478;BME280;47345;52.334;10.392;2023-04-26T02:19:01;100902.95;;;3.60;74.75
61478;BME280;47345;52.334;10.392;2023-04-26T02:21:33;100909.52;;;3.59;74.89
61478;BME280;47345;52.334;10.392;2023-04-26T02:24:19;100910.11;;;3.59;74.86
61478;BME280;47345;52.334;10.392;2023-04-26T02:26:51;100910.31;;;3.58;75.00
61478;BME280;47345;52.334;10.392;2023-04-26T02:29:22;100909.86;;;3.60;75.06
61478;BME280;47345;52.334;10.392;2023-04-26T02:32:12;100916.60;;;3.59;74.98
61478;BME280;47345;52.334;10.392;2023-04-26T02:34:43;100914.88;;;3.58;75.11
61478;BME280;47345;52.334;10.392;2023-04-26T02:37:13;100905.93;;;3.57;74.77
61478;BME280;47345;52.334;10.392;2023-04-26T02:39:44;100906.02;;;3.54;74.92
61478;BME280;47345;52.334;10.392;2023-04-26T02:42:18;100908.50;;;3.51;75.13
61478;BME280;47345;52.334;10.392;2023-04-26T02:44:50;100910.05;;;3.50;75.28
61478;BME280;47345;52.334;10.392;2023-04-26T02:47:20;100912.71;;;3.51;75.23
61478;BME280;47345;52.334;10.392;2023-04-26T02:49:52;100906.02;;;3.51;75.31
61478;BME280;47345;52.334;10.392;2023-04-26T02:52:23;100907.62;;;3.51;75.27
61478;BME280;47345;52.334;10.392;2023-04-26T02:54:53;100910.53;;;3.51;75.25
61478;BME280;47345;52.334;10.392;2023-04-26T02:57:24;100911.73;;;3.50;75.33
61478;BME280;47345;52.334;10.392;2023-04-26T02:59:55;100911.45;;;3.49;75.09
61478;BME280;47345;52.334;10.392;2023-04-26T03:02:26;100912.18;;;3.47;75.15
61478;BME280;47345;52.334;10.392;2023-04-26T03:04:57;100914.41;;;3.47;75.28
61478;BME280;47345;52.334;10.392;2023-04-26T03:07:28;100914.39;;;3.47;75.55
61478;BME280;47345;52.334;10.392;2023-04-26T03:09:59;100914.92;;;3.47;75.30
61478;BME280;47345;52.334;10.392;2023-04-26T03:12:31;100915.73;;;3.46;75.28
61478;BME280;47345;52.334;10.392;2023-04-26T03:15:01;100913.86;;;3.45;75.27
61478;BME280;47345;52.334;10.392;2023-04-26T03:17:32;100911.48;;;3.47;75.57
61478;BME280;47345;52.334;10.392;2023-04-26T03:20:03;100907.52;;;3.47;75.68
61478;BME280;47345;52.334;10.392;2023-04-26T03:22:35;100906.56;;;3.49;75.76
61478;BME280;47345;52.334;10.392;2023-04-26T03:25:06;100907.29;;;3.51;75.70
61478;BME280;47345;52.334;10.392;2023-04-26T03:27:37;100907.84;;;3.52;75.75
61478;BME280;47345;52.334;10.392;2023-04-26T03:30:09;100904.33;;;3.53;75.76
61478;BME280;47345;52.334;10.392;2023-04-26T03:32:41;100902.88;;;3.54;75.80
61478;BME280;47345;52.334;10.392;2023-04-26T03:35:12;100905.48;;;3.58;75.66
61478;BME280;47345;52.334;10.392;2023-04-26T03:37:43;100904.45;;;3.61;75.80
61478;BME280;47345;52.334;10.392;2023-04-26T03:40:14;100908.60;;;3.65;75.54
61478;BME280;47345;52.334;10.392;2023-04-26T03:42:45;100908.11;;;3.66;75.49
61478;BME280;47345;52.334;10.392;2023-04-26T03:45:15;100909.48;;;3.67;75.38
61478;BME280;47345;52.334;10.392;2023-04-26T03:47:46;100909.46;;;3.67;75.29
61478;BME280;47345;52.334;10.392;2023-04-26T03:50:17;100906.27;;;3.65;75.30
61478;BME280;47345;52.334;10.392;2023-04-26T03:52:48;100908.80;;;3.64;75.39
61478;BME280;47345;52.334;10.392;2023-04-26T03:55:19;100902.71;;;3.64;75.31
61478;BME280;47345;52.334;10.392;2023-04-26T03:57:50;100906.58;;;3.65;75.55
61478;BME280;47345;52.334;10.392;2023-04-26T04:00:22;100902.09;;;3.63;75.27
61478;BME280;47345;52.334;10.392;2023-04-26T04:02:53;100906.59;;;3.61;75.24
61478;BME280;47345;52.334;10.392;2023-04-26T04:05:24;100908.02;;;3.62;75.15
61478;BME280;47345;52.334;10.392;2023-04-26T04:07:55;100909.67;;;3.63;75.43
61478;BME280;47345;52.334;10.392;2023-04-26T04:10:26;100915.37;;;3.65;75.25
61478;BME280;47345;52.334;10.392;2023-04-26T04:12:57;100917.36;;;3.65;75.19
61478;BME280;47345;52.334;10.392;2023-04-26T04:15:28;100920.52;;;3.66;75.23
61478;BME280;47345;52.334;10.392;2023-04-26T04:17:58;100918.68;;;3.68;75.45
61478;BME280;47345;52.334;10.392;2023-04-26T04:20:29;100920.15;;;3.72;75.63
61478;BME280;47345;52.334;10.392;2023-04-26T04:22:59;100917.21;;;3.74;75.50
61478;BME280;47345;52.334;10.392;2023-04-26T04:25:32;100919.31;;;3.74;75.68
61478;BME280;47345;52.334;10.392;2023-04-26T04:28:04;100921.67;;;3.78;75.94
61478;BME280;47345;52.334;10.392;2023-04-26T04:30:34;100918.63;;;3.81;75.92
61478;BME280;47345;52.334;10.392;2023-04-26T04:33:05;100920.77;;;3.85;75.85
61478;BME280;47345;52.334;10.392;2023-04-26T04:35:36;100925.04;;;3.89;75.82
61478;BME280;47345;52.334;10.392;2023-04-26T04:38:06;100924.64;;;3.91;75.97
61478;BME280;47345;52.334;10.392;2023-04-26T04:40:37;100928.77;;;3.93;75.97
61478;BME280;47345;52.334;10.392;2023-04-26T04:43:08;100929.66;;;3.97;76.23
61478;BME280;47345;52.334;10.392;2023-04-26T04:45:40;100928.51;;;4.01;76.15
61478;BME280;47345;52.334;10.392;2023-04-26T04:48:10;100930.98;;;4.05;76.28
61478;BME280;47345;52.334;10.392;2023-04-26T04:50:41;100928.00;;;4.08;76.18
61478;BME280;47345;52.334;10.392;2023-04-26T04:53:12;100932.05;;;4.12;75.83
61478;BME280;47345;52.334;10.392;2023-04-26T04:55:43;100936.14;;;4.15;75.83
61478;BME280;47345;52.334;10.392;2023-04-26T04:58:14;100938.59;;;4.19;75.88
61478;BME280;47345;52.334;10.392;2023-04-26T05:00:45;100934.04;;;4.23;75.92
61478;BME280;47345;52.334;10.392;2023-04-26T05:03:16;100936.13;;;4.27;75.66
61478;BME280;47345;52.334;10.392;2023-04-26T05:05:47;100936.34;;;4.30;75.61
61478;BME280;47345;52.334;10.392;2023-04-26T05:08:18;100934.10;;;4.34;75.56
61478;BME280;47345;52.334;10.392;2023-04-26T05:10:48;100931.58;;;4.38;75.38
61478;BME280;47345;52.334;10.392;2023-04-26T05:13:19;100931.62;;;4.41;75.58
61478;BME280;47345;52.334;10.392;2023-04-26T05:15:49;100931.91;;;4.45;75.30
61478;BME280;47345;52.334;10.392;2023-04-26T05:18:20;100936.77;;;4.49;75.51
61478;BME280;47345;52.334;10.392;2023-04-26T05:20:51;100942.82;;;4.53;75.20
61478;BME280;47345;52.334;10.392;2023-04-26T05:23:22;100944.66;;;4.56;75.26
61478;BME280;47345;52.334;10.392;2023-04-26T05:25:53;100946.96;;;4.60;75.31
61478;BME280;47345;52.334;10.392;2023-04-26T05:28:23;100950.13;;;4.66;75.21
61478;BME280;47345;52.334;10.392;2023-04-26T05:30:54;100952.11;;;4.69;75.04
61478;BME280;47345;52.334;10.392;2023-04-26T05:33:25;100951.82;;;4.72;75.15
61478;BME280;47345;52.334;10.392;2023-04-26T05:35:56;100955.17;;;4.76;75.12
61478;BME280;47345;52.334;10.392;2023-04-26T05:38:26;100959.41;;;4.82;74.71
61478;BME280;47345;52.334;10.392;2023-04-26T05:40:57;100959.23;;;4.87;74.67
61478;BME280;47345;52.334;10.392;2023-04-26T05:43:28;100964.77;;;4.93;74.62
61478;BME280;47345;52.334;10.392;2023-04-26T05:45:59;100965.73;;;4.97;74.34
61478;BME280;47345;52.334;10.392;2023-04-26T05:48:30;100964.73;;;5.02;74.43
61478;BME280;47345;52.334;10.392;2023-04-26T05:51:01;100969.30;;;5.05;74.49
61478;BME280;47345;52.334;10.392;2023-04-26T05:53:31;100974.73;;;5.08;74.53
61478;BME280;47345;52.334;10.392;2023-04-26T05:56:03;100975.17;;;5.11;74.37
61478;BME280;47345;52.334;10.392;2023-04-26T05:58:33;100975.05;;;5.15;74.59
61478;BME280;47345;52.334;10.392;2023-04-26T06:01:05;100978.30;;;5.19;74.33
61478;BME280;47345;52.334;10.392;2023-04-26T06:03:36;100978.58;;;5.20;74.40
61478;BME280;47345;52.334;10.392;2023-04-26T06:06:07;100975.47;;;5.22;74.25
61478;BME280;47345;52.334;10.392;2023-04-26T06:08:41;100972.90;;;5.25;74.37
61478;BME280;47345;52.334;10.392;2023-04-26T06:11:11;100972.29;;;5.31;74.81
61478;BME280;47345;52.334;10.392;2023-04-26T06:13:42;100971.12;;;5.39;74.61
61478;BME280;47345;52.334;10.392;2023-04-26T06:16:13;100975.95;;;5.46;74.36
61478;BME280;47345;52.334;10.392;2023-04-26T06:18:45;100975.77;;;5.54;74.17
61478;BME280;47345;52.334;10.392;2023-04-26T06:21:15;100981.02;;;5.62;74.39
61478;BME280;47345;52.334;10.392;2023-04-26T06:23:46;100981.64;;;5.70;74.36
61478;BME280;47345;52.334;10.392;2023-04-26T06:26:16;100982.24;;;5.74;73.35
61478;BME280;47345;52.334;10.392;2023-04-26T06:28:47;100979.43;;;5.75;72.82
61478;BME280;47345;52.334;10.392;2023-04-26T06:31:18;100978.30;;;5.75;72.69
61478;BME280;47345;52.334;10.392;2023-04-26T06:33:50;100982.01;;;5.78;73.00
61478;BME280;47345;52.334;10.392;2023-04-26T06:36:21;100981.73;;;5.82;72.92
61478;BME280;47345;52.334;10.392;2023-04-26T06:38:52;100983.18;;;5.86;73.08
61478;BME280;47345;52.334;10.392;2023-04-26T06:41:22;100980.02;;;5.86;72.88
61478;BME280;47345;52.334;10.392;2023-04-26T06:43:53;100980.52;;;5.86;73.31
61478;BME280;47345;52.334;10.392;2023-04-26T06:46:24;100985.24;;;5.86;72.88
61478;BME280;47345;52.334;10.392;2023-04-26T06:48:55;100983.55;;;5.86;72.87
61478;BME280;47345;52.334;10.392;2023-04-26T06:51:25;100987.63;;;5.88;72.72
61478;BME280;47345;52.334;10.392;2023-04-26T06:53:57;100989.40;;;5.90;72.83
61478;BME280;47345;52.334;10.392;2023-04-26T06:56:29;100987.02;;;5.92;72.85
61478;BME280;47345;52.334;10.392;2023-04-26T06:59:01;100988.04;;;5.99;73.00
61478;BME280;47345;52.334;10.392;2023-04-26T07:01:33;100991.01;;;6.09;73.56
61478;BME280;47345;52.334;10.392;2023-04-26T07:04:04;100986.91;;;6.21;73.22
61478;BME280;47345;52.334;10.392;2023-04-26T07:06:37;100985.20;;;6.33;72.63
61478;BME280;47345;52.334;10.392;2023-04-26T07:09:08;100982.88;;;6.44;72.12
61478;BME280;47345;52.334;10.392;2023-04-26T07:11:39;100988.56;;;6.55;71.74
61478;BME280;47345;52.334;10.392;2023-04-26T07:14:11;100988.88;;;6.63;71.42
61478;BME280;47345;52.334;10.392;2023-04-26T07:16:42;100991.13;;;6.71;71.95
61478;BME280;47345;52.334;10.392;2023-04-26T07:19:13;100989.78;;;6.78;71.31
61478;BME280;47345;52.334;10.392;2023-04-26T07:21:44;100994.04;;;6.84;70.63
61478;BME280;47345;52.334;10.392;2023-04-26T07:24:15;100992.48;;;6.89;70.47
61478;BME280;47345;52.334;10.392;2023-04-26T07:26:46;100997.42;;;6.93;70.30
61478;BME280;47345;52.334;10.392;2023-04-26T07:29:17;100992.20;;;6.98;70.08
61478;BME280;47345;52.334;10.392;2023-04-26T07:31:48;100993.80;;;7.03;70.74
61478;BME280;47345;52.334;10.392;2023-04-26T07:34:18;100995.30;;;7.09;70.99
61478;BME280;47345;52.334;10.392;2023-04-26T07:36:49;100996.90;;;7.17;70.57
61478;BME280;47345;52.334;10.392;2023-04-26T07:39:20;100997.40;;;7.25;69.55
61478;BME280;47345;52.334;10.392;2023-04-26T07:41:51;100998.52;;;7.36;69.82
61478;BME280;47345;52.334;10.392;2023-04-26T07:44:21;100992.98;;;7.49;68.93
61478;BME280;47345;52.334;10.392;2023-04-26T07:46:52;100992.95;;;7.57;67.25
61478;BME280;47345;52.334;10.392;2023-04-26T07:49:23;100997.05;;;7.61;67.37
61478;BME280;47345;52.334;10.392;2023-04-26T07:51:54;100990.39;;;7.65;66.96
61478;BME280;47345;52.334;10.392;2023-04-26T07:54:26;100996.36;;;7.67;65.92
61478;BME280;47345;52.334;10.392;2023-04-26T07:56:57;100997.63;;;7.65;66.12
61478;BME280;47345;52.334;10.392;2023-04-26T07:59:27;100993.64;;;7.72;66.41
61478;BME280;47345;52.334;10.392;2023-04-26T08:01:58;100991.18;;;7.80;66.53
61478;BME280;47345;52.334;10.392;2023-04-26T08:04:33;100991.10;;;7.92;65.97
61478;BME280;47345;52.334;10.392;2023-04-26T08:07:04;100992.62;;;8.03;65.07
61478;BME280;47345;52.334;10.392;2023-04-26T08:09:35;100995.59;;;8.10;63.66
61478;BME280;47345;52.334;10.392;2023-04-26T08:12:07;101001.08;;;8.21;64.88
61478;BME280;47345;52.334;10.392;2023-04-26T08:14:37;100999.87;;;8.36;66.32
61478;BME280;47345;52.334;10.392;2023-04-26T08:17:09;101002.14;;;8.47;63.97
61478;BME280;47345;52.334;10.392;2023-04-26T08:19:40;101000.33;;;8.53;63.10
61478;BME280;47345;52.334;10.392;2023-04-26T08:22:10;100999.20;;;8.56;61.76
61478;BME280;47345;52.334;10.392;2023-04-26T08:24:41;100993.89;;;8.58;61.75
61478;BME280;47345;52.334;10.392;2023-04-26T08:27:16;100996.45;;;8.64;61.84
61478;BME280;47345;52.334;10.392;2023-04-26T08:29:47;100997.14;;;8.73;61.39
61478;BME280;47345;52.334;10.392;2023-04-26T08:32:18;101003.58;;;8.76;59.88
61478;BME280;47345;52.334;10.392;2023-04-26T08:34:49;101001.52;;;8.69;57.79
61478;BME280;47345;52.334;10.392;2023-04-26T08:37:20;101007.36;;;8.67;58.73
61478;BME280;47345;52.334;10.392;2023-04-26T08:39:51;101007.30;;;8.71;57.79
61478;BME280;47345;52.334;10.392;2023-04-26T08:42:26;101005.71;;;8.75;58.25
61478;BME280;47345;52.334;10.392;2023-04-26T08:45:00;100999.14;;;8.79;58.36
61478;BME280;47345;52.334;10.392;2023-04-26T08:47:39;101001.74;;;8.83;58.82
61478;BME280;47345;52.334;10.392;2023-04-26T08:50:12;101000.62;;;8.90;58.71
61478;BME280;47345;52.334;10.392;2023-04-26T08:52:44;100994.25;;;8.97;58.77
61478;BME280;47345;52.334;10.392;2023-04-26T08:55:17;100997.70;;;9.01;58.88
61478;BME280;47345;52.334;10.392;2023-04-26T08:57:50;101006.58;;;9.03;59.05
61478;BME280;47345;52.334;10.392;2023-04-26T09:00:20;100996.13;;;9.04;58.00
61478;BME280;47345;52.334;10.392;2023-04-26T09:02:52;100996.77;;;9.08;57.38
61478;BME280;47345;52.334;10.392;2023-04-26T09:05:23;100995.59;;;9.11;57.43
61478;BME280;47345;52.334;10.392;2023-04-26T09:07:59;100994.24;;;9.17;57.40
61478;BME280;47345;52.334;10.392;2023-04-26T09:10:30;100997.45;;;9.23;57.19
61478;BME280;47345;52.334;10.392;2023-04-26T09:13:01;100998.42;;;9.24;56.79
61478;BME280;47345;52.334;10.392;2023-04-26T09:15:32;100999.23;;;9.24;56.05
61478;BME280;47345;52.334;10.392;2023-04-26T09:21:05;100992.95;;;9.25;57.42
61478;BME280;47345;52.334;10.392;2023-04-26T09:23:57;100986.47;;;9.27;57.23
61478;BME280;47345;52.334;10.392;2023-04-26T09:26:27;100995.69;;;9.37;56.58
61478;BME280;47345;52.334;10.392;2023-04-26T09:29:14;100996.12;;;9.38;55.76
61478;BME280;47345;52.334;10.392;2023-04-26T09:31:47;100990.63;;;9.36;54.82
61478;BME280;47345;52.334;10.392;2023-04-26T09:34:19;100992.79;;;9.34;55.12
61478;BME280;47345;52.334;10.392;2023-04-26T09:36:51;100993.19;;;9.39;55.09
61478;BME280;47345;52.334;10.392;2023-04-26T09:39:36;100997.67;;;9.46;55.49
61478;BME280;47345;52.334;10.392;2023-04-26T09:42:08;101000.58;;;9.56;55.39
61478;BME280;47345;52.334;10.392;2023-04-26T09:44:39;101000.80;;;9.66;55.07
61478;BME280;47345;52.334;10.392;2023-04-26T09:47:11;100999.55;;;9.76;55.12
61478;BME280;47345;52.334;10.392;2023-04-26T09:49:46;100997.21;;;9.86;55.32
61478;BME280;47345;52.334;10.392;2023-04-26T09:52:19;100995.09;;;9.97;55.15
61478;BME280;47345;52.334;10.392;2023-04-26T09:54:51;100994.08;;;10.09;54.61
61478;BME280;47345;52.334;10.392;2023-04-26T09:57:22;100999.41;;;10.19;54.36
61478;BME280;47345;52.334;10.392;2023-04-26T09:59:53;100996.26;;;10.25;53.90
61478;BME280;47345;52.334;10.392;2023-04-26T10:02:25;100995.26;;;10.31;53.68
61478;BME280;47345;52.334;10.392;2023-04-26T10:04:58;101003.55;;;10.40;53.48
61478;BME280;47345;52.334;10.392;2023-04-26T10:07:31;101000.36;;;10.53;53.21
61478;BME280;47345;52.334;10.392;2023-04-26T10:10:04;101000.82;;;10.58;51.47
61478;BME280;47345;52.334;10.392;2023-04-26T10:12:36;101000.42;;;10.55;50.21
61478;BME280;47345;52.334;10.392;2023-04-26T10:15:09;101005.01;;;10.49;49.56
61478;BME280;47345;52.334;10.392;2023-04-26T10:17:40;101009.84;;;10.41;49.45
61478;BME280;47345;52.334;10.392;2023-04-26T10:20:12;101004.64;;;10.38;49.69
61478;BME280;47345;52.334;10.392;2023-04-26T10:22:51;101006.84;;;10.33;49.09
61478;BME280;47345;52.334;10.392;2023-04-26T10:25:35;101000.13;;;10.29;49.67
61478;BME280;47345;52.334;10.392;2023-04-26T10:28:06;100999.14;;;10.26;49.96
61478;BME280;47345;52.334;10.392;2023-04-26T10:30:54;100998.06;;;10.25;50.45
61478;BME280;47345;52.334;10.392;2023-04-26T10:33:25;100993.73;;;10.23;49.80
61478;BME280;47345;52.334;10.392;2023-04-26T10:36:07;100998.40;;;10.24;49.58
61478;BME280;47345;52.334;10.392;2023-04-26T10:38:40;100994.86;;;10.23;49.20
61478;BME280;47345;52.334;10.392;2023-04-26T10:41:31;100996.49;;;10.27;48.50
61478;BME280;47345;52.334;10.392;2023-04-26T10:44:38;100994.16;;;10.25;48.33
61478;BME280;47345;52.334;10.392;2023-04-26T10:47:22;100996.42;;;10.15;48.56
61478;BME280;47345;52.334;10.392;2023-04-26T10:49:53;100999.66;;;10.01;46.91
61478;BME280;47345;52.334;10.392;2023-04-26T10:52:34;101000.27;;;9.85;48.65
61478;BME280;47345;52.334;10.392;2023-04-26T10:55:07;100996.46;;;9.73;49.85
61478;BME280;47345;52.334;10.392;2023-04-26T10:57:51;101001.09;;;9.69;49.79
61478;BME280;47345;52.334;10.392;2023-04-26T11:00:39;101002.39;;;9.68;49.92
61478;BME280;47345;52.334;10.392;2023-04-26T11:03:11;101000.51;;;9.74;50.85
61478;BME280;47345;52.334;10.392;2023-04-26T11:05:51;101002.18;;;9.82;51.26
61478;BME280;47345;52.334;10.392;2023-04-26T11:08:27;101000.76;;;9.91;50.73
61478;BME280;47345;52.334;10.392;2023-04-26T11:11:06;101004.32;;;9.96;50.70
61478;BME280;47345;52.334;10.392;2023-04-26T11:13:41;101002.02;;;9.95;50.42
61478;BME280;47345;52.334;10.392;2023-04-26T11:16:14;101004.15;;;9.94;50.45
61478;BME280;47345;52.334;10.392;2023-04-26T11:18:46;101004.63;;;9.92;50.56
61478;BME280;47345;52.334;10.392;2023-04-26T11:21:17;101003.14;;;9.91;50.20
61478;BME280;47345;52.334;10.392;2023-04-26T11:23:54;100999.30;;;9.94;50.25
61478;BME280;47345;52.334;10.392;2023-04-26T11:26:32;100998.79;;;9.98;50.34
61478;BME280;47345;52.334;10.392;2023-04-26T11:29:03;101002.84;;;10.05;49.98
61478;BME280;47345;52.334;10.392;2023-04-26T11:31:37;101002.70;;;10.10;50.20
61478;BME280;47345;52.334;10.392;2023-04-26T11:34:08;101000.77;;;10.15;49.13
61478;BME280;47345;52.334;10.392;2023-04-26T11:36:38;101000.81;;;10.20;49.85
61478;BME280;47345;52.334;10.392;2023-04-26T11:39:10;101003.48;;;10.32;49.74
61478;BME280;47345;52.334;10.392;2023-04-26T11:41:42;101000.64;;;10.45;50.43
61478;BME280;47345;52.334;10.392;2023-04-26T11:44:16;100993.41;;;10.60;50.40
61478;BME280;47345;52.334;10.392;2023-04-26T11:46:48;100996.56;;;10.75;49.99
61478;BME280;47345;52.334;10.392;2023-04-26T11:49:19;100998.05;;;10.86;49.06
61478;BME280;47345;52.334;10.392;2023-04-26T11:51:50;100994.59;;;10.91;49.04
61478;BME280;47345;52.334;10.392;2023-04-26T11:54:32;100993.77;;;10.96;48.77
61478;BME280;47345;52.334;10.392;2023-04-26T11:57:13;100992.87;;;11.03;47.58
61478;BME280;47345;52.334;10.392;2023-04-26T11:59:46;100981.27;;;11.10;46.89
61478;BME280;47345;52.334;10.392;2023-04-26T12:02:16;100989.73;;;11.18;46.77
61478;BME280;47345;52.334;10.392;2023-04-26T12:04:58;100995.13;;;11.19;46.99
61478;BME280;47345;52.334;10.392;2023-04-26T12:07:35;100993.38;;;11.12;47.46
61478;BME280;47345;52.334;10.392;2023-04-26T12:10:16;100997.66;;;11.11;47.95
61478;BME280;47345;52.334;10.392;2023-04-26T12:12:51;100993.52;;;11.09;47.19
61478;BME280;47345;52.334;10.392;2023-04-26T12:15:25;101006.48;;;11.04;47.19
61478;BME280;47345;52.334;10.392;2023-04-26T12:18:00;101009.11;;;10.99;47.27
61478;BME280;47345;52.334;10.392;2023-04-26T12:20:32;101010.18;;;10.95;46.40
61478;BME280;47345;52.334;10.392;2023-04-26T12:23:09;101011.09;;;10.92;47.02
61478;BME280;47345;52.334;10.392;2023-04-26T12:25:41;101010.55;;;10.92;47.63
61478;BME280;47345;52.334;10.392;2023-04-26T12:28:21;101003.15;;;10.94;47.46
61478;BME280;47345;52.334;10.392;2023-04-26T12:30:52;101000.21;;;10.96;47.52
61478;BME280;47345;52.334;10.392;2023-04-26T12:33:23;101000.52;;;10.98;47.21
61478;BME280;47345;52.334;10.392;2023-04-26T12:35:54;101004.86;;;11.00;46.60
61478;BME280;47345;52.334;10.392;2023-04-26T12:38:26;101001.08;;;11.00;47.00
61478;BME280;47345;52.334;10.392;2023-04-26T12:40:57;100999.88;;;10.97;47.12
61478;BME280;47345;52.334;10.392;2023-04-26T12:43:27;100999.45;;;10.96;47.73
61478;BME280;47345;52.334;10.392;2023-04-26T12:45:58;100994.55;;;10.99;47.88
61478;BME280;47345;52.334;10.392;2023-04-26T12:48:29;100987.23;;;11.12;47.89
61478;BME280;47345;52.334;10.392;2023-04-26T12:51:00;100987.30;;;11.27;46.64
61478;BME280;47345;52.334;10.392;2023-04-26T12:53:31;100986.41;;;11.39;46.93
61478;BME280;47345;52.334;10.392;2023-04-26T12:56:03;100985.14;;;11.53;46.28
61478;BME280;47345;52.334;10.392;2023-04-26T12:58:34;100983.44;;;11.64;45.78
61478;BME280;47345;52.334;10.392;2023-04-26T13:01:04;100977.36;;;11.73;45.76
61478;BME280;47345;52.334;10.392;2023-04-26T13:03:35;100982.02;;;11.79;44.75
61478;BME280;47345;52.334;10.392;2023-04-26T13:06:06;100981.37;;;11.74;43.87
61478;BME280;47345;52.334;10.392;2023-04-26T13:08:37;100987.66;;;11.64;43.11
61478;BME280;47345;52.334;10.392;2023-04-26T13:11:08;100989.45;;;11.53;43.92
61478;BME280;47345;52.334;10.392;2023-04-26T13:13:39;100982.14;;;11.47;43.59
61478;BME280;47345;52.334;10.392;2023-04-26T13:16:13;100989.58;;;11.43;43.02